createdAt,value
2022-09-05T00:03:17.257Z,59.24
2022-09-05T00:06:27.715Z,59.19
2022-09-05T00:09:44.217Z,59.35
2022-09-05T00:12:50.768Z,59.33
2022-09-05T00:16:22.427Z,59.43
2022-09-05T00:24:30.905Z,59.48
2022-09-05T00:24:35.901Z,59.65
2022-09-05T00:27:02.555Z,59.66
2022-09-05T00:31:07.556Z,59.68
2022-09-05T00:33:48.257Z,59.67
2022-09-05T00:37:08.244Z,59.63
2022-09-05T00:40:25.522Z,59.92
2022-09-05T00:43:34.608Z,59.96
2022-09-05T00:46:46.919Z,59.80
2022-09-05T00:50:07.707Z,59.89
2022-09-05T00:53:22.844Z,60.10
2022-09-05T00:57:00.994Z,60.28
2022-09-05T01:00:33.795Z,60.35
2022-09-05T01:04:05.759Z,60.41
2022-09-05T01:08:01.781Z,60.29
2022-09-05T01:11:21.360Z,60.32
2022-09-05T01:14:50.367Z,60.50
2022-09-05T01:18:26.433Z,60.61
2022-09-05T01:21:48.495Z,60.73
2022-09-05T01:25:32.801Z,60.75
2022-09-05T01:29:24.754Z,60.53
2022-09-05T01:33:05.821Z,60.22
2022-09-05T01:36:34.430Z,60.23
2022-09-05T01:40:24.573Z,60.53
2022-09-05T01:43:45.112Z,60.62
2022-09-05T01:46:55.860Z,60.73
2022-09-05T01:50:12.800Z,60.88
2022-09-05T01:53:41.117Z,60.97
2022-09-05T01:56:55.459Z,61.03
2022-09-05T02:00:56.161Z,61.08
2022-09-05T02:04:43.106Z,61.09
2022-09-05T02:08:30.642Z,61.11
2022-09-05T02:12:13.446Z,61.16
2022-09-05T02:15:27.554Z,61.25
2022-09-05T02:19:01.349Z,61.26
2022-09-05T02:22:30.009Z,61.29
2022-09-05T02:26:03.686Z,61.32
2022-09-05T02:29:37.031Z,61.37
2022-09-05T02:33:00.796Z,61.42
2022-09-05T02:36:18.255Z,61.36
2022-09-05T02:45:09.015Z,61.38
2022-09-05T02:45:15.038Z,61.20
2022-09-05T02:47:07.148Z,61.16
2022-09-05T02:54:05.772Z,61.20
2022-09-05T02:57:32.897Z,61.28
2022-09-05T02:58:06.431Z,61.18
2022-09-05T03:01:01.379Z,61.09
2022-09-05T03:04:14.301Z,61.36
2022-09-05T03:08:05.425Z,61.44
2022-09-05T03:11:42.176Z,61.41
2022-09-05T03:15:42.540Z,61.65
2022-09-05T03:19:46.165Z,61.70
2022-09-05T03:23:13.597Z,61.87
2022-09-05T03:26:58.586Z,62.07
2022-09-05T03:30:34.529Z,62.17
2022-09-05T03:33:56.193Z,62.18
2022-09-05T03:37:37.974Z,62.21
2022-09-05T03:40:57.863Z,62.25
2022-09-05T03:44:36.476Z,62.28
2022-09-05T03:48:29.261Z,62.31
2022-09-05T03:57:10.994Z,62.29
2022-09-05T03:57:17.489Z,62.31
2022-09-05T03:58:57.211Z,62.32
2022-09-05T04:03:21.553Z,62.35
2022-09-05T04:08:14.239Z,62.35
2022-09-05T04:09:43.467Z,62.34
2022-09-05T04:12:50.378Z,62.33
2022-09-05T04:16:03.916Z,62.34
2022-09-05T04:19:33.121Z,62.34
2022-09-05T04:22:53.203Z,62.36
2022-09-05T04:26:43.509Z,62.36
2022-09-05T04:30:39.095Z,62.40
2022-09-05T04:33:47.128Z,62.45
2022-09-05T04:36:53.303Z,62.48
2022-09-05T04:39:59.690Z,62.48
2022-09-05T04:43:05.725Z,62.50
2022-09-05T04:46:31.551Z,62.52
2022-09-05T04:50:12.678Z,62.56
2022-09-05T04:53:44.778Z,62.55
2022-09-05T04:56:53.831Z,62.57
2022-09-05T05:05:59.244Z,62.58
2022-09-05T05:06:01.955Z,62.59
2022-09-05T05:06:54.946Z,62.59
2022-09-05T05:12:37.815Z,62.68
2022-09-05T05:17:58.202Z,62.73
2022-09-05T05:18:06.381Z,62.74
2022-09-05T05:20:39.774Z,62.72
2022-09-05T05:23:25.593Z,62.73
2022-09-05T05:26:43.767Z,62.72
2022-09-05T05:30:08.611Z,62.69
2022-09-05T05:33:15.960Z,62.70
2022-09-05T05:36:22.923Z,62.73
2022-09-05T05:39:34.084Z,62.77
2022-09-05T05:42:40.387Z,62.79
2022-09-05T05:45:48.662Z,62.85
2022-09-05T05:48:57.515Z,62.92
2022-09-05T05:52:14.792Z,62.93
2022-09-05T05:55:51.222Z,62.95
2022-09-05T05:59:16.098Z,62.90
2022-09-05T06:02:41.143Z,62.85
2022-09-05T06:06:22.955Z,62.97
2022-09-05T06:14:55.002Z,63.08
2022-09-05T06:14:57.362Z,63.19
2022-09-05T06:17:27.908Z,63.28
2022-09-05T06:22:08.367Z,63.39
2022-09-05T06:24:47.755Z,63.47
2022-09-05T06:28:26.167Z,63.55
2022-09-05T06:31:57.142Z,63.64
2022-09-05T06:39:47.947Z,63.67
2022-09-05T06:43:17.992Z,63.67
2022-09-05T06:47:22.113Z,63.66
2022-09-05T06:51:07.766Z,63.62
2022-09-05T06:54:14.064Z,63.62
2022-09-05T06:57:43.907Z,63.61
2022-09-05T07:01:03.890Z,63.51
2022-09-05T07:05:23.950Z,63.44
2022-09-05T07:07:55.264Z,63.16
2022-09-05T07:11:24.293Z,62.91
2022-09-05T07:14:47.343Z,62.73
2022-09-05T07:18:11.238Z,62.58
2022-09-05T07:25:04.120Z,62.31
2022-09-05T07:28:28.924Z,62.20
2022-09-05T07:31:38.099Z,62.10
2022-09-05T07:34:52.649Z,61.89
2022-09-05T07:38:02.012Z,61.61
2022-09-05T07:41:16.269Z,61.37
2022-09-05T07:44:29.528Z,61.11
2022-09-05T07:47:59.573Z,60.93
2022-09-05T07:56:49.624Z,60.77
2022-09-05T07:57:04.127Z,60.59
2022-09-05T07:57:50.996Z,60.38
2022-09-05T08:01:07.180Z,60.26
2022-09-05T08:04:20.690Z,60.08
2022-09-05T08:07:51.920Z,59.99
2022-09-05T08:11:25.628Z,59.96
2022-09-05T08:14:44.517Z,59.87
2022-09-05T08:17:41.746Z,59.75
2022-09-05T08:20:56.506Z,59.70
2022-09-05T08:24:20.697Z,59.50
2022-09-05T08:27:41.594Z,59.39
2022-09-05T08:31:02.324Z,59.18
2022-09-05T08:34:12.354Z,58.96
2022-09-05T08:37:21.886Z,58.77
2022-09-05T08:40:54.631Z,58.59
2022-09-05T08:46:43.268Z,58.39
2022-09-05T08:47:58.446Z,58.10
2022-09-05T08:51:54.378Z,57.82
2022-09-05T08:55:23.508Z,57.69
2022-09-05T08:59:32.048Z,57.45
2022-09-05T09:02:49.226Z,57.21
2022-09-05T09:06:28.555Z,57.00
2022-09-05T09:09:48.474Z,56.88
2022-09-05T09:13:19.745Z,56.74
2022-09-05T09:16:52.443Z,56.60
2022-09-05T09:20:33.706Z,56.50
2022-09-05T09:24:05.730Z,56.24
2022-09-05T09:27:53.955Z,55.86
2022-09-05T09:30:36.271Z,55.72
2022-09-05T09:33:55.894Z,55.52
2022-09-05T09:37:20.150Z,55.39
2022-09-05T09:40:52.419Z,55.28
2022-09-05T09:44:43.534Z,55.16
2022-09-05T09:48:10.492Z,54.98
2022-09-05T09:51:52.122Z,54.82
2022-09-05T09:55:55.466Z,54.72
2022-09-05T09:59:54.723Z,54.64
2022-09-05T10:06:54.086Z,54.66
2022-09-05T10:10:57.642Z,54.68
2022-09-05T10:15:31.088Z,54.61
2022-09-05T10:18:54.223Z,54.52
2022-09-05T10:25:31.076Z,54.37
2022-09-05T10:29:37.396Z,54.40
2022-09-05T10:35:07.807Z,54.51
2022-09-05T10:36:38.953Z,54.41
2022-09-05T10:39:54.269Z,54.40
2022-09-05T10:43:09.547Z,54.40
2022-09-05T10:46:50.709Z,54.44
2022-09-05T10:49:49.381Z,54.32
2022-09-05T10:53:07.060Z,54.24
2022-09-05T10:56:28.535Z,54.08
2022-09-05T11:02:15.798Z,53.94
2022-09-05T11:02:58.703Z,53.88
2022-09-05T11:06:14.086Z,53.88
2022-09-05T11:09:39.907Z,53.77
2022-09-05T11:13:28.063Z,53.65
2022-09-05T11:17:00.211Z,53.52
2022-09-05T11:20:41.705Z,53.28
2022-09-05T11:23:58.597Z,52.97
2022-09-05T11:27:24.465Z,52.76
2022-09-05T11:30:38.884Z,52.54
2022-09-05T11:39:58.554Z,51.88
2022-09-05T11:39:59.042Z,52.21
2022-09-05T11:42:01.783Z,51.49
2022-09-05T11:45:34.432Z,51.33
2022-09-05T11:49:07.161Z,51.24
2022-09-05T11:52:47.932Z,51.19
2022-09-05T11:56:25.491Z,51.14
2022-09-05T11:59:49.759Z,51.17
2022-09-05T12:03:57.198Z,51.17
2022-09-05T12:07:31.724Z,51.03
2022-09-05T12:10:47.595Z,50.90
2022-09-05T12:14:25.712Z,50.67
2022-09-05T12:17:53.906Z,50.53
2022-09-05T12:21:19.592Z,50.29
2022-09-05T12:25:25.954Z,50.16
2022-09-05T12:27:47.083Z,49.96
2022-09-05T12:36:06.118Z,49.77
2022-09-05T12:39:50.047Z,49.69
2022-09-05T12:41:38.267Z,49.56
2022-09-05T12:42:09.615Z,49.87
2022-09-05T12:44:34.642Z,49.45
2022-09-05T12:47:23.066Z,49.33
2022-09-05T12:50:30.546Z,49.18
2022-09-05T12:53:40.254Z,49.15
2022-09-05T13:01:31.942Z,49.07
2022-09-05T13:03:13.135Z,48.99
2022-09-05T13:03:27.836Z,48.97
2022-09-05T13:06:34.952Z,49.20
2022-09-05T13:11:10.064Z,49.77
2022-09-05T13:15:01.708Z,50.42
2022-09-05T13:16:27.043Z,51.05
2022-09-05T13:19:57.361Z,51.52
2022-09-05T13:23:05.196Z,51.88
2022-09-05T13:26:41.472Z,52.19
2022-09-05T13:30:51.895Z,52.42
2022-09-05T13:38:10.165Z,52.81
2022-09-05T13:38:29.225Z,52.66
2022-09-05T13:39:34.986Z,52.99
2022-09-05T13:42:49.848Z,53.13
2022-09-05T13:46:25.655Z,53.24
2022-09-05T13:49:45.209Z,53.44
2022-09-05T13:52:58.973Z,53.58
2022-09-05T13:56:07.693Z,53.72
2022-09-05T13:59:24.142Z,53.84
2022-09-05T14:03:38.871Z,53.84
2022-09-05T14:07:43.933Z,53.83
2022-09-05T14:10:52.883Z,54.04
2022-09-05T14:17:53.318Z,54.15
2022-09-05T14:21:10.974Z,54.07
2022-09-05T14:24:37.327Z,54.25
2022-09-05T14:27:45.797Z,54.42
2022-09-05T14:35:47.045Z,54.48
2022-09-05T14:37:41.622Z,54.49
2022-09-05T14:38:31.546Z,54.59
2022-09-05T14:42:18.185Z,54.80
2022-09-05T14:45:52.949Z,54.89
2022-09-05T14:49:25.739Z,54.96
2022-09-05T14:52:46.867Z,55.14
2022-09-05T14:56:06.222Z,55.13
2022-09-05T15:02:44.771Z,55.18
2022-09-05T15:02:56.671Z,55.26
2022-09-05T15:05:35.723Z,55.30
2022-09-05T15:11:24.216Z,55.28
2022-09-05T15:12:23.111Z,55.34
2022-09-05T15:15:25.864Z,55.34
2022-09-05T15:18:48.267Z,55.35
2022-09-05T15:21:54.506Z,55.31
2022-09-05T15:25:18.217Z,55.38
2022-09-05T15:28:24.919Z,55.41
2022-09-05T15:31:37.868Z,55.50
2022-09-05T15:34:48.528Z,55.60
2022-09-05T15:37:56.803Z,55.68
2022-09-05T15:41:26.420Z,55.75
2022-09-05T15:45:06.292Z,55.72
2022-09-05T15:47:52.908Z,55.86
2022-09-05T15:51:04.190Z,55.87
2022-09-05T15:54:11.232Z,55.93
2022-09-05T15:57:22.855Z,55.96
2022-09-05T16:00:57.384Z,56.04
2022-09-05T16:08:56.838Z,56.08
2022-09-05T16:10:29.649Z,56.11
2022-09-05T16:10:50.724Z,56.14
2022-09-05T16:13:53.311Z,56.21
2022-09-05T16:23:29.888Z,56.24
2022-09-05T16:23:48.807Z,56.21
2022-09-05T16:26:44.622Z,56.30
2022-09-05T16:29:59.486Z,56.29
2022-09-05T16:33:08.600Z,56.42
2022-09-05T16:36:27.459Z,56.50
2022-09-05T16:39:39.358Z,56.47
2022-09-05T16:43:04.184Z,56.49
2022-09-05T16:46:34.418Z,56.58
2022-09-05T16:49:45.401Z,56.67
2022-09-05T16:53:02.614Z,56.78
2022-09-05T16:56:15.125Z,56.77
2022-09-05T16:59:34.154Z,56.81
2022-09-05T17:02:52.929Z,56.80
2022-09-05T17:06:03.036Z,56.86
2022-09-05T17:09:12.711Z,56.96
2022-09-05T17:12:25.818Z,57.13
2022-09-05T17:15:34.734Z,57.31
2022-09-05T17:18:49.303Z,57.45
2022-09-05T17:24:49.380Z,57.55
2022-09-05T17:29:30.886Z,57.65
2022-09-05T17:29:50.493Z,57.61
2022-09-05T17:32:14.462Z,57.71
2022-09-05T17:36:14.548Z,57.76
2022-09-05T17:39:54.410Z,57.80
2022-09-05T17:43:18.632Z,57.77
2022-09-05T17:46:46.745Z,57.88
2022-09-05T17:50:02.075Z,58.00
2022-09-05T17:53:26.602Z,58.06
2022-09-05T17:56:52.925Z,58.15
2022-09-05T17:59:58.977Z,58.26
2022-09-05T18:03:10.420Z,58.23
2022-09-05T18:06:22.055Z,58.32
2022-09-05T18:10:11.936Z,58.35
2022-09-05T18:13:31.439Z,58.50
2022-09-05T18:16:20.838Z,58.60
2022-09-05T18:19:35.774Z,58.69
2022-09-05T18:22:56.959Z,58.65
2022-09-05T18:26:14.808Z,58.78
2022-09-05T18:29:57.974Z,58.93
2022-09-05T18:33:55.298Z,59.10
2022-09-05T18:36:14.287Z,59.14
2022-09-05T18:39:43.451Z,59.28
2022-09-05T18:42:52.759Z,59.44
2022-09-05T18:46:08.215Z,59.62
2022-09-05T18:50:22.028Z,59.78
2022-09-05T18:52:40.583Z,59.85
2022-09-05T18:56:12.327Z,59.83
2022-09-05T18:59:12.644Z,59.73
2022-09-05T19:02:50.455Z,59.79
2022-09-05T19:06:35.090Z,59.86
2022-09-05T19:09:26.617Z,59.82
2022-09-05T19:12:32.430Z,59.88
2022-09-05T19:15:40.343Z,59.97
2022-09-05T19:18:49.516Z,60.07
2022-09-05T19:23:08.568Z,60.15
2022-09-05T19:25:17.926Z,60.15
2022-09-05T19:36:46.779Z,60.17
2022-09-05T19:36:57.057Z,60.15
2022-09-05T19:37:14.272Z,60.15
2022-09-05T19:38:15.335Z,60.20
2022-09-05T19:46:27.513Z,60.32
2022-09-05T19:47:52.055Z,60.43
2022-09-05T19:48:07.402Z,60.58
2022-09-05T19:51:02.950Z,60.71
2022-09-05T19:54:11.750Z,60.89
2022-09-05T19:57:31.007Z,61.05
2022-09-05T20:00:38.209Z,61.14
2022-09-05T20:03:46.972Z,61.16
2022-09-05T20:06:53.231Z,61.27
2022-09-05T20:10:00.734Z,61.39
2022-09-05T20:13:08.474Z,61.48
2022-09-05T20:16:16.205Z,61.49
2022-09-05T20:19:23.815Z,61.59
2022-09-05T20:22:47.230Z,61.58
2022-09-05T20:25:55.487Z,61.64
2022-09-05T20:29:02.677Z,61.67
2022-09-05T20:32:10.115Z,61.70
2022-09-05T20:37:18.465Z,61.76
2022-09-05T20:43:18.146Z,61.76
2022-09-05T20:43:23.464Z,61.70
2022-09-05T20:45:02.481Z,61.73
2022-09-05T20:54:04.573Z,61.90
2022-09-05T20:54:19.062Z,62.03
2022-09-05T20:54:34.694Z,62.14
2022-09-05T20:57:35.831Z,62.16
2022-09-05T21:00:41.953Z,62.20
2022-09-05T21:03:53.746Z,62.24
2022-09-05T21:06:59.301Z,62.25
2022-09-05T21:10:13.617Z,62.26
2022-09-05T21:13:19.237Z,62.24
2022-09-05T21:16:33.350Z,62.26
2022-09-05T21:19:50.091Z,62.32
2022-09-05T21:22:58.213Z,62.37
2022-09-05T21:26:11.754Z,62.37
2022-09-05T21:29:33.613Z,62.42
2022-09-05T21:32:41.858Z,62.44
2022-09-05T21:35:55.748Z,62.46
2022-09-05T21:39:00.829Z,62.48
2022-09-05T21:45:41.082Z,62.57
2022-09-05T21:47:46.596Z,62.63
2022-09-05T21:48:27.034Z,62.66
2022-09-05T21:51:35.160Z,62.68
2022-09-05T21:54:40.850Z,62.70
2022-09-05T21:59:27.446Z,62.71
2022-09-05T22:00:58.424Z,62.73
2022-09-05T22:04:05.314Z,62.75
2022-09-05T22:07:11.879Z,62.74
2022-09-05T22:10:18.563Z,62.71
2022-09-05T22:13:25.120Z,62.77
2022-09-05T22:16:32.578Z,62.78
2022-09-05T22:19:41.131Z,62.81
2022-09-05T22:22:56.041Z,62.85
2022-09-05T22:25:55.305Z,62.86
2022-09-05T22:29:01.490Z,62.85
2022-09-05T22:32:09.479Z,62.86
2022-09-05T22:35:28.418Z,62.91
2022-09-05T22:38:25.512Z,62.95
2022-09-05T22:41:31.282Z,62.95
2022-09-05T22:44:37.866Z,62.93
2022-09-05T22:47:44.492Z,62.90
2022-09-05T22:50:49.739Z,62.94
2022-09-05T22:53:55.637Z,62.91
2022-09-05T22:57:02.434Z,62.95
2022-09-05T23:00:10.911Z,62.92
2022-09-05T23:03:18.757Z,62.98
2022-09-05T23:06:25.247Z,62.99
2022-09-05T23:09:32.548Z,63.02
2022-09-05T23:12:38.237Z,63.04
2022-09-05T23:15:44.202Z,63.10
2022-09-05T23:18:50.167Z,63.12
2022-09-05T23:21:56.210Z,63.12
2022-09-05T23:25:03.509Z,63.10
2022-09-05T23:28:08.880Z,63.08
2022-09-05T23:31:15.526Z,63.09
2022-09-05T23:34:21.803Z,63.10
2022-09-05T23:37:28.271Z,63.11
2022-09-05T23:40:34.367Z,63.14
2022-09-05T23:43:41.600Z,63.18
2022-09-05T23:46:49.208Z,63.18
2022-09-05T23:49:55.986Z,63.20
2022-09-05T23:53:02.500Z,63.26
2022-09-05T23:56:00.585Z,63.27
2022-09-05T23:59:06.668Z,63.23
